Time;durP1;ratioP1;P1;durP2;ratioP2;P2;SDS_P1;SDS_P2;PMS_P1;PMS_P2;Temp;Humidity;BMP_temperature;BMP_pressure;BME280_temperature;BME280_humidity;BME280_pressure;Samples;Min_cycle;Max_cycle;Signal;HPM_P1;HPM_P2
2023/08/02 00:02:55;;;;;;;3.70;2.80;;;;;;;18.47;80.42;98857.81;130561;1258;106103;-80
2023/08/02 00:06:01;;;;;;;3.50;2.60;;;;;;;18.43;80.44;98860.17;130657;1265;109296;-78
2023/08/02 00:09:07;;;;;;;6.00;3.20;;;;;;;18.39;80.52;98857.01;130663;1258;107574;-78
2023/08/02 00:12:12;;;;;;;5.50;3.00;;;;;;;18.36;80.62;98871.91;130587;1257;105959;-78
2023/08/02 00:15:18;;;;;;;3.30;2.70;;;;;;;18.36;80.77;98881.30;130495;1257;107514;-78
2023/08/02 00:18:24;;;;;;;4.00;2.80;;;;;;;18.38;80.68;98882.64;130595;1258;107525;-78
2023/08/02 00:21:29;;;;;;;4.50;3.10;;;;;;;18.37;80.77;98876.90;130578;1254;107517;-79
2023/08/02 00:24:35;;;;;;;4.70;2.50;;;;;;;18.37;80.75;98877.42;130577;1258;107521;-78
2023/08/02 00:27:40;;;;;;;2.60;2.40;;;;;;;18.35;80.90;98881.98;130590;1254;107540;-78
2023/08/02 00:30:49;;;;;;;4.30;2.70;;;;;;;18.34;80.89;98883.48;130526;1255;107540;-78
2023/08/02 00:33:55;;;;;;;3.60;2.90;;;;;;;18.35;80.92;98889.83;130580;1259;107500;-79
2023/08/02 00:37:01;;;;;;;3.70;2.80;;;;;;;18.36;81.00;98887.99;130629;1254;107265;-79
2023/08/02 00:40:09;;;;;;;4.00;2.90;;;;;;;18.35;80.93;98888.04;130687;1258;109361;-79
2023/08/02 00:43:14;;;;;;;4.30;2.70;;;;;;;18.32;80.97;98888.89;130591;1258;107456;-79
2023/08/02 00:46:20;;;;;;;3.60;2.70;;;;;;;18.29;80.99;98889.67;130572;1270;107256;-79
2023/08/02 00:49:26;;;;;;;3.30;2.40;;;;;;;18.24;81.04;98885.64;130342;1257;234603;-78
2023/08/02 00:52:32;;;;;;;3.40;2.70;;;;;;;18.22;81.16;98888.45;130545;1255;107392;-78
2023/08/02 00:55:39;;;;;;;3.20;2.60;;;;;;;18.23;81.16;98892.14;130532;1258;107470;-79
2023/08/02 00:58:45;;;;;;;3.80;2.80;;;;;;;18.22;81.18;98894.70;130551;1257;106693;-78
2023/08/02 01:01:50;;;;;;;3.60;2.90;;;;;;;18.19;81.23;98896.48;130552;1254;105754;-79
2023/08/02 01:04:56;;;;;;;3.00;2.40;;;;;;;18.16;81.21;98895.67;130564;1270;107333;-79
2023/08/02 01:08:08;;;;;;;3.60;2.50;;;;;;;18.12;81.23;98900.66;130527;1254;107527;-79
2023/08/02 01:11:21;;;;;;;3.40;2.70;;;;;;;18.10;81.27;98899.73;130588;1258;108137;-78
2023/08/02 01:14:29;;;;;;;3.80;2.50;;;;;;;18.06;81.22;98898.64;130576;1254;106557;-79
2023/08/02 01:17:36;;;;;;;2.90;2.20;;;;;;;18.00;81.31;98896.83;130530;1271;107238;-78
2023/08/02 01:20:41;;;;;;;4.10;2.40;;;;;;;17.94;81.28;98897.10;130580;1258;106601;-78
2023/08/02 01:23:47;;;;;;;3.00;2.30;;;;;;;17.86;81.30;98900.64;130590;1259;107544;-78
2023/08/02 01:26:55;;;;;;;2.60;2.40;;;;;;;17.79;81.35;98898.58;130604;1257;107507;-79
2023/08/02 01:30:05;;;;;;;3.20;2.40;;;;;;;17.73;81.28;98898.14;130604;1259;106391;-79
2023/08/02 01:33:11;;;;;;;6.40;2.80;;;;;;;17.66;81.33;98900.08;130576;1258;107545;-78
2023/08/02 01:36:17;;;;;;;3.10;2.40;;;;;;;17.60;81.34;98901.71;130546;1257;107695;-78
2023/08/02 01:39:22;;;;;;;3.40;2.70;;;;;;;17.52;81.37;98903.58;130607;1260;107521;-78
2023/08/02 01:42:28;;;;;;;4.00;2.40;;;;;;;17.43;81.35;98904.42;130536;1258;107479;-79
2023/08/02 01:45:34;;;;;;;3.00;2.30;;;;;;;17.36;81.55;98904.90;130601;1257;106804;-79
2023/08/02 01:48:39;;;;;;;4.80;2.50;;;;;;;17.33;81.66;98907.41;130562;1256;107868;-78
2023/08/02 01:51:45;;;;;;;6.00;2.80;;;;;;;17.30;81.73;98908.34;130542;1257;106703;-78
2023/08/02 01:54:51;;;;;;;3.80;2.60;;;;;;;17.27;81.75;98905.20;130543;1258;108091;-79
2023/08/02 01:57:56;;;;;;;3.30;2.40;;;;;;;17.23;81.81;98911.63;130502;1256;107381;-79
2023/08/02 02:01:02;;;;;;;3.10;2.30;;;;;;;17.17;81.87;98908.40;130523;1259;107270;-78
2023/08/02 02:04:08;;;;;;;2.30;2.00;;;;;;;17.12;81.87;98910.14;130527;1256;106930;-79
2023/08/02 02:07:14;;;;;;;5.20;2.60;;;;;;;17.07;81.88;98913.77;130561;1254;107482;-79
2023/08/02 02:10:19;;;;;;;2.90;2.40;;;;;;;17.03;82.02;98920.04;130558;1256;106087;-79
2023/08/02 02:13:26;;;;;;;3.70;2.60;;;;;;;17.02;82.07;98921.09;130589;1258;107573;-78
2023/08/02 02:16:31;;;;;;;4.40;2.60;;;;;;;17.01;82.09;98919.77;130577;1259;107527;-78
2023/08/02 02:19:37;;;;;;;3.30;2.50;;;;;;;16.96;82.22;98922.80;130595;1255;107521;-79
2023/08/02 02:22:43;;;;;;;2.80;2.20;;;;;;;16.89;82.07;98922.95;130887;1255;107411;-79
2023/08/02 02:25:48;;;;;;;3.40;2.70;;;;;;;16.86;82.14;98923.70;130976;1253;107337;-79
2023/08/02 02:28:54;;;;;;;3.10;2.80;;;;;;;16.83;82.23;98927.75;131170;1249;105737;-78
2023/08/02 02:32:02;;;;;;;5.60;2.70;;;;;;;16.82;82.32;98930.55;131016;1254;107588;-79
2023/08/02 02:35:12;;;;;;;3.50;2.60;;;;;;;16.78;82.32;98923.41;130987;1255;107443;-81
2023/08/02 02:38:18;;;;;;;2.80;2.40;;;;;;;16.74;82.36;98922.95;130922;1262;107485;-81
2023/08/02 02:41:24;;;;;;;3.10;2.40;;;;;;;16.68;82.43;98920.00;131108;1250;107521;-77
2023/08/02 02:44:42;;;;;;;5.90;2.70;;;;;;;16.64;82.43;98916.23;130983;1256;107454;-79
2023/08/02 02:47:47;;;;;;;4.10;2.70;;;;;;;16.64;82.57;98918.65;131156;1249;107487;-80
2023/08/02 02:50:53;;;;;;;3.70;2.60;;;;;;;16.64;82.43;98921.42;130969;1251;107260;-80
2023/08/02 02:53:58;;;;;;;5.00;2.60;;;;;;;16.61;82.44;98921.15;131004;1253;108089;-78
2023/08/02 02:57:04;;;;;;;3.10;2.50;;;;;;;16.55;82.56;98929.39;130938;1256;107586;-78
2023/08/02 03:00:11;;;;;;;2.90;2.20;;;;;;;16.52;82.61;98928.59;130890;1255;107377;-81
2023/08/02 03:03:17;;;;;;;3.50;2.20;;;;;;;16.50;82.57;98933.05;130984;1253;107410;-78
2023/08/02 03:06:23;;;;;;;3.00;2.50;;;;;;;16.48;82.47;98938.17;130960;1254;106696;-80
2023/08/02 03:09:28;;;;;;;3.80;2.60;;;;;;;16.46;82.57;98940.88;130918;1254;107506;-79
2023/08/02 03:12:33;;;;;;;3.10;2.80;;;;;;;16.42;82.34;98940.75;130955;1264;107558;-80
2023/08/02 03:15:39;;;;;;;3.00;2.60;;;;;;;16.39;82.33;98944.14;130998;1255;107492;-78
2023/08/02 03:18:44;;;;;;;2.70;2.20;;;;;;;16.34;82.45;98945.81;130949;1256;107639;-78
2023/08/02 03:21:50;;;;;;;3.60;2.20;;;;;;;16.31;82.40;98950.73;130864;1250;107918;-79
2023/08/02 03:24:55;;;;;;;2.80;2.20;;;;;;;16.28;82.58;98950.33;131031;1255;107549;-79
2023/08/02 03:28:01;;;;;;;3.90;2.70;;;;;;;16.29;82.60;98947.81;130921;1251;107521;-79
2023/08/02 03:31:06;;;;;;;3.10;2.80;;;;;;;16.33;82.60;98958.75;130935;1266;107261;-79
2023/08/02 03:34:12;;;;;;;2.80;2.50;;;;;;;16.34;82.64;98961.35;130990;1255;107536;-80
2023/08/02 03:37:18;;;;;;;3.60;2.80;;;;;;;16.34;82.70;98962.04;130952;1249;107233;-79
2023/08/02 03:40:25;;;;;;;3.30;2.60;;;;;;;16.36;82.72;98964.14;131028;1249;106811;-79
2023/08/02 03:43:31;;;;;;;3.80;2.80;;;;;;;16.40;82.96;98965.91;131053;1254;105707;-79
2023/08/02 03:46:36;;;;;;;3.30;2.70;;;;;;;16.46;83.03;98964.61;130944;1254;106264;-78
2023/08/02 03:49:42;;;;;;;3.70;2.50;;;;;;;16.53;83.05;98965.30;130924;1254;107546;-78
2023/08/02 03:52:49;;;;;;;2.90;2.50;;;;;;;16.63;83.13;98969.80;131004;1254;107566;-78
2023/08/02 03:55:54;;;;;;;3.90;2.60;;;;;;;16.76;83.16;98973.41;130994;1266;107368;-80
2023/08/02 03:59:00;;;;;;;3.40;2.40;;;;;;;16.93;83.04;98966.65;130884;1255;107528;-80
2023/08/02 04:02:06;;;;;;;4.60;2.30;;;;;;;17.13;83.12;98965.23;131003;1255;107644;-79
2023/08/02 04:05:11;;;;;;;3.50;2.50;;;;;;;17.36;83.03;98965.63;130970;1250;107350;-78
2023/08/02 04:08:17;;;;;;;4.50;2.70;;;;;;;17.58;82.89;98970.30;130982;1254;106015;-79
2023/08/02 04:11:22;;;;;;;2.70;2.20;;;;;;;17.77;82.78;98971.78;130975;1252;107514;-79
2023/08/02 04:14:28;;;;;;;5.30;2.30;;;;;;;17.94;82.58;98969.70;130858;1250;107447;-78
2023/08/02 04:17:34;;;;;;;2.60;2.00;;;;;;;18.12;82.40;98970.95;130976;1254;107538;-78
2023/08/02 04:20:40;;;;;;;5.00;2.40;;;;;;;18.31;82.21;98971.29;130989;1254;107511;-79
2023/08/02 04:23:45;;;;;;;2.30;2.10;;;;;;;18.52;82.26;98974.98;131006;1255;107234;-79
2023/08/02 04:26:51;;;;;;;3.20;2.40;;;;;;;18.73;81.95;98984.52;131056;1251;107518;-80
2023/08/02 04:29:56;;;;;;;2.90;2.50;;;;;;;18.86;81.60;98987.25;131075;1254;107515;-79
2023/08/02 04:33:02;;;;;;;3.60;2.60;;;;;;;18.99;81.59;98989.57;131001;1255;107547;-78
2023/08/02 04:36:08;;;;;;;5.80;3.00;;;;;;;19.12;81.26;98988.92;130918;1255;107567;-78
2023/08/02 04:39:15;;;;;;;2.90;2.10;;;;;;;19.20;81.13;98985.14;130982;1250;107441;-78
2023/08/02 04:42:20;;;;;;;6.70;3.20;;;;;;;19.35;80.92;98987.62;130956;1251;107269;-78
2023/08/02 04:45:27;;;;;;;3.10;2.30;;;;;;;19.48;80.64;98985.81;131044;1250;107576;-79
2023/08/02 04:48:32;;;;;;;2.80;2.30;;;;;;;19.62;80.60;98987.59;131111;1254;107623;-78
2023/08/02 04:51:38;;;;;;;4.30;3.20;;;;;;;19.77;80.24;98989.40;132058;1252;107385;-78
2023/08/02 04:54:43;;;;;;;3.50;2.70;;;;;;;19.89;80.00;98993.66;131177;1251;106771;-78
2023/08/02 04:57:49;;;;;;;2.80;2.50;;;;;;;20.00;79.80;98990.43;131048;1249;107237;-80
2023/08/02 05:00:55;;;;;;;3.30;2.20;;;;;;;20.09;79.77;98992.52;131208;1255;107450;-79
2023/08/02 05:04:00;;;;;;;4.30;2.30;;;;;;;20.24;79.71;98994.96;131220;1249;106241;-79
2023/08/02 05:07:06;;;;;;;5.30;2.60;;;;;;;20.39;79.39;98998.17;131168;1254;108678;-79
2023/08/02 05:10:12;;;;;;;3.40;3.00;;;;;;;20.49;78.22;99002.33;131174;1250;107311;-80
2023/08/02 05:13:24;;;;;;;3.20;2.80;;;;;;;20.51;78.39;99005.85;131270;1251;107379;-80
2023/08/02 05:16:29;;;;;;;3.00;2.70;;;;;;;20.57;77.37;98999.86;131435;1254;107637;-80
2023/08/02 05:19:35;;;;;;;3.80;2.50;;;;;;;20.50;77.66;99001.16;131226;1253;107417;-80
2023/08/02 05:22:41;;;;;;;4.20;2.30;;;;;;;20.58;77.74;99003.30;131154;1251;107651;-80
2023/08/02 05:25:48;;;;;;;2.70;2.30;;;;;;;20.68;77.85;98998.48;131162;1253;106453;-79
2023/08/02 05:28:54;;;;;;;3.80;2.60;;;;;;;20.81;77.54;99003.08;131186;1250;106414;-80
2023/08/02 05:32:05;;;;;;;2.80;2.40;;;;;;;20.81;76.90;99002.22;131365;1249;106256;-83
2023/08/02 05:35:14;;;;;;;6.60;2.90;;;;;;;20.78;76.68;99006.36;131112;1256;107311;-81
2023/08/02 05:38:19;;;;;;;4.00;2.50;;;;;;;20.77;76.27;99010.30;131242;1254;107514;-80
2023/08/02 05:41:25;;;;;;;3.20;2.50;;;;;;;20.81;76.40;99008.73;131208;1250;107589;-80
2023/08/02 05:44:30;;;;;;;3.30;2.60;;;;;;;20.81;75.73;99009.17;131165;1250;107444;-79
2023/08/02 05:47:37;;;;;;;3.80;2.70;;;;;;;20.78;76.09;99008.91;131108;1252;107531;-79
2023/08/02 05:50:42;;;;;;;3.30;2.40;;;;;;;20.84;75.78;99006.31;131044;1250;106260;-79
2023/08/02 05:53:48;;;;;;;6.50;3.20;;;;;;;20.86;75.60;99009.98;131136;1255;107491;-79
2023/08/02 05:56:55;;;;;;;3.20;2.50;;;;;;;20.87;74.96;99005.34;131184;1255;108118;-80
2023/08/02 06:00:01;;;;;;;2.70;2.40;;;;;;;20.75;74.84;99008.20;131225;1253;107551;-81
2023/08/02 06:03:12;;;;;;;2.60;2.30;;;;;;;20.72;75.09;99011.91;131057;1255;107500;-79
2023/08/02 06:06:19;;;;;;;2.50;2.20;;;;;;;20.76;75.34;99020.52;131047;1252;107224;-80
2023/08/02 06:09:25;;;;;;;5.60;2.60;;;;;;;20.77;74.01;99022.40;131144;1253;107389;-79
2023/08/02 06:12:30;;;;;;;3.10;2.40;;;;;;;20.66;74.52;99021.38;131088;1253;108683;-80
2023/08/02 06:15:36;;;;;;;2.60;1.90;;;;;;;20.66;74.70;99020.45;131173;1253;107287;-79
2023/08/02 06:18:41;;;;;;;3.30;2.10;;;;;;;20.74;74.69;99020.93;131114;1254;106947;-79
2023/08/02 06:21:47;;;;;;;3.10;2.20;;;;;;;20.83;74.51;99017.48;131055;1252;107265;-80
2023/08/02 06:24:53;;;;;;;4.30;2.30;;;;;;;20.86;73.93;99025.98;131142;1251;107609;-80
2023/08/02 06:27:58;;;;;;;3.70;2.10;;;;;;;20.86;73.98;99021.58;131207;1256;107009;-79
2023/08/02 06:31:04;;;;;;;3.40;1.90;;;;;;;20.89;74.15;99020.01;131100;1250;109304;-81
2023/08/02 06:34:14;;;;;;;3.60;1.80;;;;;;;20.86;72.60;99025.11;130983;1255;107509;-79
2023/08/02 06:37:23;;;;;;;3.40;1.80;;;;;;;20.67;71.49;99029.88;131216;1255;107157;-79
2023/08/02 06:40:28;;;;;;;2.80;1.70;;;;;;;20.53;72.81;99032.15;131074;1253;106551;-79
2023/08/02 06:43:34;;;;;;;2.30;1.80;;;;;;;20.58;72.82;99036.73;130987;1251;107511;-80
2023/08/02 06:46:42;;;;;;;2.30;1.90;;;;;;;20.61;72.65;99042.75;131056;1255;107580;-80
2023/08/02 06:49:47;;;;;;;2.20;1.60;;;;;;;20.64;71.76;99047.41;131118;1255;106957;-80
2023/08/02 06:52:53;;;;;;;2.10;1.50;;;;;;;20.53;71.13;99052.21;131135;1268;107321;-79
2023/08/02 06:55:59;;;;;;;3.20;1.60;;;;;;;20.56;72.51;99053.89;131113;1249;107920;-79
2023/08/02 06:59:05;;;;;;;3.20;1.40;;;;;;;20.65;72.01;99049.59;131171;1254;107550;-80
2023/08/02 07:02:11;;;;;;;1.80;1.40;;;;;;;20.66;71.60;99049.83;131082;1251;107469;-81
2023/08/02 07:05:17;;;;;;;3.90;1.80;;;;;;;20.74;72.31;99049.30;131135;1257;107403;-79
2023/08/02 07:08:24;;;;;;;2.50;1.50;;;;;;;20.90;71.99;99046.52;131165;1254;106199;-79
2023/08/02 07:11:29;;;;;;;1.70;1.30;;;;;;;21.01;71.15;99049.13;131081;1249;107447;-78
2023/08/02 07:14:35;;;;;;;1.80;1.40;;;;;;;21.01;70.63;99043.05;131934;1249;107431;-80
2023/08/02 07:17:40;;;;;;;1.70;1.30;;;;;;;21.08;71.13;99039.34;132126;1249;108374;-80
2023/08/02 07:20:46;;;;;;;1.50;1.30;;;;;;;21.15;71.20;99036.92;131863;1254;107529;-80
2023/08/02 07:23:51;;;;;;;3.10;1.30;;;;;;;21.23;69.91;99040.70;131213;1249;107457;-79
2023/08/02 07:26:57;;;;;;;1.60;1.20;;;;;;;21.16;68.12;99038.08;131040;1254;107556;-79
2023/08/02 07:30:03;;;;;;;2.00;1.40;;;;;;;21.14;69.87;99045.11;130925;1255;107575;-80
2023/08/02 07:33:08;;;;;;;3.60;1.20;;;;;;;21.26;69.86;99047.31;131099;1256;107515;-80
2023/08/02 07:36:18;;;;;;;1.80;1.40;;;;;;;21.37;69.23;99051.73;131128;1252;107454;-80
2023/08/02 07:39:23;;;;;;;2.00;1.60;;;;;;;21.44;68.82;99062.40;131156;1254;105546;-80
2023/08/02 07:42:30;;;;;;;1.70;1.40;;;;;;;21.55;68.84;99059.63;131117;1251;107455;-80
2023/08/02 07:45:35;;;;;;;2.60;1.40;;;;;;;21.58;68.29;99059.66;131169;1255;108288;-79
2023/08/02 07:48:41;;;;;;;3.20;1.60;;;;;;;21.64;68.47;99054.83;130984;1254;107534;-80
2023/08/02 07:51:46;;;;;;;2.30;1.40;;;;;;;21.74;68.28;99048.85;131073;1252;107493;-80
2023/08/02 07:54:54;;;;;;;1.90;1.40;;;;;;;21.83;68.17;99049.17;131167;1249;107291;-81
2023/08/02 07:57:59;;;;;;;3.30;1.40;;;;;;;21.89;67.31;99052.06;131171;1255;107506;-80
2023/08/02 08:01:09;;;;;;;2.10;1.40;;;;;;;22.01;67.81;99049.65;131188;1255;108252;-80
2023/08/02 08:04:14;;;;;;;2.60;1.50;;;;;;;22.24;67.40;99053.83;131116;1250;107494;-80
2023/08/02 08:07:20;;;;;;;1.50;1.30;;;;;;;22.40;66.80;99062.08;131119;1254;107625;-81
2023/08/02 08:10:26;;;;;;;3.70;1.70;;;;;;;22.40;65.66;99058.43;130987;1249;107378;-80
2023/08/02 08:13:32;;;;;;;2.40;1.30;;;;;;;22.34;65.89;99058.66;131093;1255;107403;-78
2023/08/02 08:16:37;;;;;;;2.50;1.50;;;;;;;22.35;65.88;99061.83;131063;1256;107543;-79
2023/08/02 08:19:44;;;;;;;1.90;1.40;;;;;;;22.42;65.66;99063.17;131014;1256;107777;-79
2023/08/02 08:22:49;;;;;;;2.00;1.40;;;;;;;22.38;65.67;99063.48;131005;1253;107237;-79
2023/08/02 08:25:55;;;;;;;1.90;1.50;;;;;;;22.44;63.77;99065.91;130969;1255;107747;-79
2023/08/02 08:29:00;;;;;;;4.50;1.40;;;;;;;22.40;63.70;99064.69;131082;1254;107523;-80
2023/08/02 08:32:07;;;;;;;1.90;1.50;;;;;;;22.40;61.60;99064.20;130970;1255;107909;-79
2023/08/02 08:35:12;;;;;;;4.40;1.70;;;;;;;22.55;62.56;99066.42;130910;1255;107486;-79
2023/08/02 08:38:17;;;;;;;4.20;1.50;;;;;;;22.68;61.44;99064.56;130986;1254;106512;-79
2023/08/02 08:41:23;;;;;;;1.40;1.20;;;;;;;22.79;60.37;99066.27;130947;1255;107490;-79
2023/08/02 08:44:29;;;;;;;1.60;1.30;;;;;;;22.99;62.09;99067.04;131017;1250;107509;-79
2023/08/02 08:47:36;;;;;;;2.50;1.40;;;;;;;23.10;61.85;99069.95;131293;1255;105661;-80
2023/08/02 08:50:45;;;;;;;2.40;1.60;;;;;;;23.11;61.10;99069.09;131553;1255;107153;-80
2023/08/02 08:53:51;;;;;;;1.90;1.30;;;;;;;23.20;62.15;99064.11;131033;1249;106434;-80
2023/08/02 08:56:58;;;;;;;2.10;1.40;;;;;;;23.32;61.92;99058.77;131065;1254;107503;-80
2023/08/02 09:00:05;;;;;;;2.00;1.40;;;;;;;23.40;61.25;99052.81;130989;1256;107512;-79
2023/08/02 09:03:12;;;;;;;1.80;1.40;;;;;;;23.41;61.06;99054.62;130942;1253;107500;-80
2023/08/02 09:06:18;;;;;;;2.80;1.60;;;;;;;23.38;60.59;99051.83;131073;1249;107476;-80
2023/08/02 09:09:24;;;;;;;1.90;1.40;;;;;;;23.33;60.95;99054.32;130969;1255;105623;-79
2023/08/02 09:12:29;;;;;;;1.50;1.30;;;;;;;23.26;60.70;99054.63;131083;1255;107577;-79
2023/08/02 09:15:35;;;;;;;3.20;1.50;;;;;;;23.29;60.60;99054.96;130928;1251;107327;-79
2023/08/02 09:18:42;;;;;;;1.40;1.30;;;;;;;23.24;59.33;99061.69;131004;1253;107497;-79
2023/08/02 09:21:47;;;;;;;2.40;1.30;;;;;;;23.17;59.78;99057.41;131148;1254;107423;-80
2023/08/02 09:24:53;;;;;;;1.60;1.20;;;;;;;23.26;60.32;99056.25;131222;1255;107532;-80
2023/08/02 09:27:59;;;;;;;1.90;1.30;;;;;;;23.42;59.97;99051.52;131124;1255;108158;-80
2023/08/02 09:31:19;;;;;;;2.40;1.20;;;;;;;23.54;59.28;99056.67;131126;1256;107338;-80
2023/08/02 09:34:43;;;;;;;1.60;1.30;;;;;;;23.58;59.12;99054.63;131167;1254;107592;-80
2023/08/02 09:37:49;;;;;;;2.60;1.20;;;;;;;23.80;59.00;99053.33;131195;1255;107509;-81
2023/08/02 09:40:55;;;;;;;2.40;1.30;;;;;;;24.06;58.98;99044.32;131162;1255;107071;-79
2023/08/02 09:44:01;;;;;;;1.80;1.30;;;;;;;24.35;58.04;99047.21;131081;1266;107244;-79
2023/08/02 09:47:13;;;;;;;1.90;1.40;;;;;;;24.44;57.64;99052.34;130947;1254;107524;-79
2023/08/02 09:50:19;;;;;;;1.90;1.40;;;;;;;24.49;56.43;99046.34;130952;1255;107484;-79
2023/08/02 09:53:25;;;;;;;1.40;1.10;;;;;;;24.66;57.78;99044.21;131091;1255;107999;-80
2023/08/02 09:56:34;;;;;;;4.70;1.70;;;;;;;24.86;56.49;99045.20;131185;1260;107254;-80
2023/08/02 09:59:40;;;;;;;1.90;1.60;;;;;;;24.83;56.67;99037.62;131101;1255;107503;-79
2023/08/02 10:02:46;;;;;;;1.70;1.40;;;;;;;24.79;56.15;99035.73;131069;1255;106713;-81
2023/08/02 10:05:54;;;;;;;1.50;1.20;;;;;;;24.77;55.56;99030.60;131588;1249;107629;-81
2023/08/02 10:09:04;;;;;;;2.70;1.40;;;;;;;24.71;55.25;99028.60;131238;1249;107420;-80
2023/08/02 10:12:16;;;;;;;1.80;1.50;;;;;;;24.72;53.89;99022.70;131096;1264;107467;-80
2023/08/02 10:15:22;;;;;;;2.40;1.60;;;;;;;24.73;54.70;99017.30;130970;1256;105781;-80
2023/08/02 10:18:30;;;;;;;1.90;1.30;;;;;;;24.68;51.70;99012.30;130998;1268;107574;-80
2023/08/02 10:21:36;;;;;;;1.50;1.40;;;;;;;24.62;53.70;99003.48;131127;1256;106424;-80
2023/08/02 10:24:44;;;;;;;1.70;1.40;;;;;;;24.51;53.92;98996.98;131184;1253;107369;-80
2023/08/02 10:27:52;;;;;;;2.80;1.30;;;;;;;24.48;54.32;98994.69;131129;1255;107639;-80
2023/08/02 10:30:58;;;;;;;1.80;1.50;;;;;;;24.53;54.16;98998.69;131223;1251;107534;-80
2023/08/02 10:34:23;;;;;;;1.70;1.40;;;;;;;24.70;53.58;98993.73;131183;1253;107267;-80
2023/08/02 10:37:59;;;;;;;1.50;1.40;;;;;;;24.81;52.20;98984.05;131193;1255;107485;-80
2023/08/02 10:41:07;;;;;;;2.40;1.40;;;;;;;24.89;53.74;98995.75;131229;1254;106154;-80
2023/08/02 10:44:14;;;;;;;2.30;1.60;;;;;;;24.87;53.37;99000.17;131103;1251;106108;-80
2023/08/02 10:47:31;;;;;;;2.10;1.40;;;;;;;24.81;52.50;98996.88;131128;1257;106631;-80
2023/08/02 10:50:48;;;;;;;1.60;1.40;;;;;;;24.81;50.64;98990.05;131109;1255;108145;-80
2023/08/02 10:54:15;;;;;;;4.70;1.50;;;;;;;24.85;52.74;98993.80;131092;1254;107799;-80
2023/08/02 10:57:20;;;;;;;1.80;1.20;;;;;;;24.99;51.34;98993.75;131102;1255;107447;-80
2023/08/02 11:00:29;;;;;;;1.80;1.40;;;;;;;24.97;51.95;98995.06;131131;1254;107668;-80
2023/08/02 11:03:35;;;;;;;1.70;1.30;;;;;;;24.93;52.35;98994.97;131101;1255;108525;-81
2023/08/02 11:06:41;;;;;;;2.50;1.70;;;;;;;24.91;51.92;98987.13;131044;1254;106706;-80
2023/08/02 11:09:48;;;;;;;2.60;1.40;;;;;;;24.95;51.67;98987.87;131379;1256;107852;-81
2023/08/02 11:12:55;;;;;;;1.70;1.40;;;;;;;24.96;51.33;98974.61;131233;1251;106555;-81
2023/08/02 11:16:04;;;;;;;1.50;1.20;;;;;;;24.99;49.61;98980.77;131089;1255;107423;-81
2023/08/02 11:19:11;;;;;;;1.60;1.20;;;;;;;24.99;50.42;98977.59;131093;1256;107439;-80
2023/08/02 11:22:18;;;;;;;2.50;1.30;;;;;;;24.96;49.84;98975.54;131154;1255;107511;-80
2023/08/02 11:25:23;;;;;;;2.90;1.20;;;;;;;25.01;50.10;98974.97;131109;1256;107620;-80
2023/08/02 11:28:38;;;;;;;2.50;1.20;;;;;;;25.21;49.12;98977.17;131070;1255;107441;-81
2023/08/02 11:31:43;;;;;;;1.90;1.20;;;;;;;25.48;50.05;98975.84;131060;1252;107548;-80
2023/08/02 11:34:49;;;;;;;1.40;1.30;;;;;;;25.78;49.80;98968.20;131053;1254;108682;-80
2023/08/02 11:37:54;;;;;;;1.90;1.20;;;;;;;25.90;49.13;98970.20;131056;1254;108108;-80
2023/08/02 11:41:00;;;;;;;1.40;1.10;;;;;;;26.01;49.34;98965.31;131082;1255;107447;-80
2023/08/02 11:44:14;;;;;;;1.20;1.10;;;;;;;26.28;49.13;98961.34;131108;1255;107222;-82
2023/08/02 11:47:20;;;;;;;1.90;1.20;;;;;;;26.50;49.28;98954.16;131048;1254;107532;-80
2023/08/02 11:50:27;;;;;;;1.20;1.10;;;;;;;26.58;49.12;98954.30;131038;1249;107228;-79
2023/08/02 11:53:33;;;;;;;1.50;1.20;;;;;;;26.53;48.96;98956.01;130990;1249;107615;-79
2023/08/02 11:56:39;;;;;;;2.50;1.40;;;;;;;26.53;48.85;98958.80;131092;1255;108614;-79
2023/08/02 11:59:47;;;;;;;2.00;1.20;;;;;;;26.66;48.73;98953.20;130971;1269;107237;-80
2023/08/02 12:02:52;;;;;;;2.60;1.20;;;;;;;26.78;48.16;98953.72;130993;1255;107303;-79
2023/08/02 12:06:02;;;;;;;1.80;1.10;;;;;;;26.90;48.04;98948.48;130989;1257;106708;-80
2023/08/02 12:09:07;;;;;;;1.40;1.10;;;;;;;26.90;48.23;98949.20;131052;1253;107505;-80
2023/08/02 12:12:13;;;;;;;1.20;1.00;;;;;;;26.91;47.92;98954.72;131082;1254;107498;-80
2023/08/02 12:15:19;;;;;;;1.90;1.10;;;;;;;26.86;47.36;98951.82;131034;1253;107435;-79
2023/08/02 12:18:25;;;;;;;1.30;1.20;;;;;;;26.75;47.20;98950.04;131075;1255;107768;-80
2023/08/02 12:21:31;;;;;;;1.20;0.90;;;;;;;26.64;46.47;98947.32;131014;1255;107056;-79
2023/08/02 12:24:36;;;;;;;1.60;1.00;;;;;;;26.53;47.20;98939.54;131005;1255;107643;-80
2023/08/02 12:27:42;;;;;;;4.50;1.40;;;;;;;26.49;46.70;98938.86;130972;1255;107658;-79
2023/08/02 12:31:01;;;;;;;1.40;1.30;;;;;;;26.53;47.37;98940.14;131020;1255;107378;-80
2023/08/02 12:34:07;;;;;;;1.30;1.10;;;;;;;26.59;47.43;98940.53;130992;1255;107442;-80
2023/08/02 12:37:12;;;;;;;2.30;1.20;;;;;;;26.55;47.25;98936.23;130914;1257;107542;-80
2023/08/02 12:40:18;;;;;;;1.30;1.10;;;;;;;26.40;47.14;98933.98;130974;1256;107531;-79
2023/08/02 12:43:24;;;;;;;1.10;1.00;;;;;;;26.36;46.73;98929.65;131174;1267;107527;-80
2023/08/02 12:46:29;;;;;;;1.80;1.10;;;;;;;26.39;46.65;98929.91;131634;1255;107361;-82
2023/08/02 12:49:35;;;;;;;2.80;1.00;;;;;;;26.35;46.71;98926.88;130997;1255;211147;-80
2023/08/02 12:52:41;;;;;;;0.90;0.90;;;;;;;26.29;46.29;98928.52;131043;1253;107619;-80
2023/08/02 12:55:46;;;;;;;1.60;1.20;;;;;;;26.24;46.71;98930.05;130999;1255;107574;-81
2023/08/02 12:58:52;;;;;;;2.60;1.00;;;;;;;26.22;46.82;98928.83;131098;1257;107514;-81
2023/08/02 13:01:58;;;;;;;2.10;0.90;;;;;;;26.11;46.69;98922.30;131100;1255;108395;-81
2023/08/02 13:05:04;;;;;;;2.40;1.10;;;;;;;26.02;46.39;98916.21;131109;1257;107352;-81
2023/08/02 13:08:10;;;;;;;1.30;1.00;;;;;;;26.07;46.42;98910.09;131107;1261;107903;-80
2023/08/02 13:11:15;;;;;;;1.60;1.00;;;;;;;26.18;46.47;98908.23;131040;1255;107531;-80
2023/08/02 13:14:21;;;;;;;1.50;1.20;;;;;;;26.26;46.51;98908.27;131077;1255;107513;-81
2023/08/02 13:17:27;;;;;;;1.30;1.00;;;;;;;26.18;46.10;98900.85;131011;1251;107618;-79
2023/08/02 13:20:32;;;;;;;1.60;1.20;;;;;;;26.09;46.12;98899.98;130950;1256;107179;-79
2023/08/02 13:23:38;;;;;;;2.50;1.30;;;;;;;26.18;46.11;98895.98;130944;1258;107787;-80
2023/08/02 13:26:43;;;;;;;1.60;1.00;;;;;;;26.34;45.73;98890.84;131034;1256;107132;-80
2023/08/02 13:29:49;;;;;;;3.50;1.20;;;;;;;26.31;44.85;98886.83;130908;1255;108016;-80
2023/08/02 13:32:54;;;;;;;1.90;1.10;;;;;;;26.18;44.93;98878.66;131049;1255;107398;-80
2023/08/02 13:36:00;;;;;;;1.10;1.00;;;;;;;26.08;45.42;98880.68;130881;1264;107563;-80
2023/08/02 13:39:05;;;;;;;2.50;1.00;;;;;;;26.14;45.91;98880.12;131035;1262;107414;-80
2023/08/02 13:42:11;;;;;;;2.60;1.20;;;;;;;26.19;45.63;98878.87;131033;1256;107966;-80
2023/08/02 13:45:16;;;;;;;1.30;0.90;;;;;;;26.17;45.82;98876.96;131090;1256;107483;-80
2023/08/02 13:48:22;;;;;;;2.00;1.00;;;;;;;26.14;45.80;98878.82;131174;1256;107285;-81
2023/08/02 13:51:28;;;;;;;1.50;1.10;;;;;;;26.17;45.53;98883.41;130958;1251;107642;-81
2023/08/02 13:54:33;;;;;;;1.90;1.10;;;;;;;26.19;45.44;98884.01;131018;1251;107499;-78
2023/08/02 13:57:39;;;;;;;3.20;1.30;;;;;;;26.21;45.24;98882.62;130971;1257;107777;-81
2023/08/02 14:00:45;;;;;;;1.90;1.10;;;;;;;26.29;45.27;98879.95;131033;1255;107430;-81
2023/08/02 14:03:50;;;;;;;1.50;1.00;;;;;;;26.41;44.52;98873.88;131007;1256;107504;-81
2023/08/02 14:06:58;;;;;;;1.60;1.10;;;;;;;26.54;45.10;98870.27;131002;1260;107518;-81
2023/08/02 14:10:05;;;;;;;1.90;1.20;;;;;;;26.58;44.89;98869.61;131021;1255;107730;-80
2023/08/02 14:13:10;;;;;;;2.00;1.20;;;;;;;26.51;44.96;98873.36;130968;1257;109109;-80
2023/08/02 14:16:16;;;;;;;2.50;1.10;;;;;;;26.39;45.09;98868.36;131025;1256;107635;-80
2023/08/02 14:19:21;;;;;;;1.20;1.10;;;;;;;26.39;45.07;98864.70;131084;1262;108683;-82